Observation data for Saint Lawrence on 04/25/2019      Previous  Date  Next       Current Mesonet Observations  Soil Data  Daily Summary Page  Observations in Plain Language
KST1 250500Z 22004KT 12/12 A2994 RMK A01 T01180115  RH  100%=      5-min Rain = 0
KST1 250505Z 22004KT 12/11 A2993 RMK A01 T01160114  RH  100%=      5-min Rain = 0
KST1 250510Z 20004KT 12/11 A2993 RMK A01 T01170114  RH  100%=      5-min Rain = 0
KST1 250515Z 20004KT 12/11 A2993 RMK A01 T01170114  RH  100%=      5-min Rain = 0
KST1 250520Z 19003KT 12/11 A2993 RMK A01 T01170114  RH  100%=      5-min Rain = 0
KST1 250525Z 20003KT 12/11 A2993 RMK A01 T01160114  RH  100%=      5-min Rain = 0
KST1 250530Z 20004KT 12/11 A2993 RMK A01 T01170114  RH  100%=      5-min Rain = 0
KST1 250535Z 20004KT 12/11 A2993 RMK A01 T01170114  RH  100%=      5-min Rain = 0
KST1 250540Z 21005KT 12/11 A2993 RMK A01 T01160114  RH  100%=      5-min Rain = 0
KST1 250545Z 21005KT 11/11 A2993 RMK A01 T01130110  RH  100%=      5-min Rain = 0
KST1 250550Z 21005KT 11/11 A2993 RMK A01 T01120110  RH  100%=      5-min Rain = 0
KST1 250555Z 22005KT 11/11 A2993 RMK A01 T01120110  RH  100%=      5-min Rain = 0
KST1 250600Z 23005KT 11/11 A2993 RMK A01 T01120109  RH  100%=      5-min Rain = 0
KST1 250605Z 23005KT 11/11 A2993 RMK A01 T01110108  RH  100%=      5-min Rain = 0
KST1 250610Z 22005KT 11/11 A2993 RMK A01 T01100107  RH  100%=      5-min Rain = 0
KST1 250615Z 22005KT 11/11 A2993 RMK A01 T01090107  RH  100%=      5-min Rain = 0
KST1 250620Z 23005KT 11/11 A2993 RMK A01 T01090107  RH  100%=      5-min Rain = 0
KST1 250625Z 23005KT 11/11 A2993 RMK A01 T01090106  RH  100%=      5-min Rain = 0
KST1 250630Z 24004KT 11/11 A2993 RMK A01 T01080105  RH  100%=      5-min Rain = 0
KST1 250635Z 24004KT 11/11 A2993 RMK A01 T01070105  RH  100%=      5-min Rain = 0
KST1 250640Z 24004KT 11/11 A2993 RMK A01 T01070105  RH  100%=      5-min Rain = 0
KST1 250645Z 24005KT 11/10 A2993 RMK A01 T01060104  RH  100%=      5-min Rain = 0
KST1 250650Z 23005KT 11/10 A2992 RMK A01 T01060103  RH  100%=      5-min Rain = 0
KST1 250655Z 23006KT 11/10 A2992 RMK A01 T01050103  RH  100%=      5-min Rain = 0
KST1 250700Z 24005KT 11/10 A2992 RMK A01 T01050103  RH  100%=      5-min Rain = 0
KST1 250705Z 24005KT 11/10 A2992 RMK A01 T01050103  RH  100%=      5-min Rain = 0
KST1 250710Z 24006KT 11/10 A2992 RMK A01 T01050102  RH  100%=      5-min Rain = 0
KST1 250715Z 24006KT 11/10 A2992 RMK A01 T01050102  RH  100%=      5-min Rain = 0
KST1 250720Z 24006KT 10/10 A2992 RMK A01 T01040102  RH  100%=      5-min Rain = 0
KST1 250725Z 24005KT 10/10 A2992 RMK A01 T01040102  RH  100%=      5-min Rain = 0
KST1 250730Z 24006KT 10/10 A2992 RMK A01 T01040101  RH  100%=      5-min Rain = 0
KST1 250735Z 24006KT 10/10 A2992 RMK A01 T01040101  RH  100%=      5-min Rain = 0
KST1 250740Z 24006KT 10/10 A2991 RMK A01 T01040101  RH  100%=      5-min Rain = 0
KST1 250745Z 24007KT 10/10 A2991 RMK A01 T01030101  RH  100%=      5-min Rain = 0
KST1 250750Z 24007KT 10/10 A2991 RMK A01 T01030101  RH  100%=      5-min Rain = 0
KST1 250755Z 24007KT 10/10 A2991 RMK A01 T01030101  RH  100%=      5-min Rain = 0
KST1 250800Z 24007KT 10/10 A2991 RMK A01 T01030101  RH  100%=      5-min Rain = 0
KST1 250805Z 24008KT 10/10 A2991 RMK A01 T01040101  RH  100%=      5-min Rain = 0
KST1 250810Z 24008KT 10/10 A299 RMK A01 T01040102  RH  100%=      5-min Rain = 0
KST1 250815Z 24008KT 11/10 A299 RMK A01 T01050102  RH  100%=      5-min Rain = 0
KST1 250820Z 24008KT 10/10 A299 RMK A01 T01040102  RH  100%=      5-min Rain = 0
KST1 250825Z 24008KT 10/10 A299 RMK A01 T01040102  RH  100%=      5-min Rain = 0
KST1 250830Z 23008KT 10/10 A299 RMK A01 T01040101  RH  100%=      5-min Rain = 0
KST1 250835Z 23008KT 10/10 A299 RMK A01 T01040102  RH  100%=      5-min Rain = 0
KST1 250840Z 23008KT 11/10 A299 RMK A01 T01050103  RH  100%=      5-min Rain = 0
KST1 250845Z 24008KT 11/10 A299 RMK A01 T01050103  RH  100%=      5-min Rain = 0
KST1 250850Z 24008KT 11/10 A299 RMK A01 T01050102  RH  100%=      5-min Rain = 0
KST1 250855Z 24008KT 10/10 A299 RMK A01 T01040102  RH  100%=      5-min Rain = 0
KST1 250900Z 24008KT 10/10 A299 RMK A01 T01040102  RH  100%=      5-min Rain = 0
KST1 250905Z 24008KT 10/10 A299 RMK A01 T01040102  RH  100%=      5-min Rain = 0
KST1 250910Z 24009KT 11/10 A299 RMK A01 T01060103  RH  100%=      5-min Rain = 0
KST1 250915Z 23008KT 11/10 A299 RMK A01 T01070104  RH  100%=      5-min Rain = 0
KST1 250920Z 24008KT 11/11 A299 RMK A01 T01070105  RH  100%=      5-min Rain = 0
KST1 250925Z 23008KT 11/11 A299 RMK A01 T01070105  RH  100%=      5-min Rain = 0
KST1 250930Z 23007KT 11/10 A299 RMK A01 T01070104  RH  100%=      5-min Rain = 0
KST1 250935Z 23006KT 11/10 A299 RMK A01 T01050102  RH  100%=      5-min Rain = 0
KST1 250940Z 23006KT 10/10 A299 RMK A01 T01040101  RH  100%=      5-min Rain = 0
KST1 250945Z 23006KT 10/10 A299 RMK A01 T01030100  RH  100%=      5-min Rain = 0
KST1 250950Z 24006KT 10/10 A299 RMK A01 T01030100  RH  100%=      5-min Rain = 0
KST1 250955Z 24007KT 10/10 A2991 RMK A01 T01020100  RH  100%=      5-min Rain = 0
KST1 251000Z 24007KT 10/10 A2991 RMK A01 T01030100  RH  100%=      5-min Rain = 0
KST1 251005Z 24008KT 10/10 A2991 RMK A01 T01040101  RH  100%=      5-min Rain = 0
KST1 251010Z 24008KT 10/10 A2991 RMK A01 T01040101  RH  100%=      5-min Rain = 0
KST1 251015Z 24007KT 10/10 A2991 RMK A01 T01030101  RH  100%=      5-min Rain = 0
KST1 251020Z 24007KT 10/10 A2991 RMK A01 T01030101  RH  100%=      5-min Rain = 0
KST1 251025Z 24007KT 10/10 A2991 RMK A01 T01040102  RH  100%=      5-min Rain = 0
KST1 251030Z 24007KT 10/10 A2991 RMK A01 T01030101  RH  100%=      5-min Rain = 0
KST1 251035Z 24007KT 10/10 A2991 RMK A01 T01030100  RH  100%=      5-min Rain = 0
KST1 251040Z 24007KT 10/10 A2991 RMK A01 T01020099  RH  100%=      5-min Rain = 0
KST1 251045Z 24007KT 10/10 A2991 RMK A01 T01010099  RH  100%=      5-min Rain = 0
KST1 251050Z 24007KT 10/10 A2991 RMK A01 T01010098  RH  100%=      5-min Rain = 0
KST1 251055Z 24007KT 10/10 A2991 RMK A01 T01000098  RH  100%=      5-min Rain = 0
KST1 251100Z 24007KT 10/10 A2991 RMK A01 T00990097  RH  100%=      5-min Rain = 0
KST1 251105Z 25007KT 10/10 A2991 RMK A01 T00990096  RH  100%=      5-min Rain = 0
KST1 251110Z 24007KT 10/10 A2991 RMK A01 T00980096  RH  100%=      5-min Rain = 0
KST1 251115Z 24007KT 10/10 A2991 RMK A01 T00980096  RH  100%=      5-min Rain = 0
KST1 251120Z 24008KT 10/10 A2991 RMK A01 T00980096  RH  100%=      5-min Rain = 0
KST1 251125Z 24007KT 10/10 A2991 RMK A01 T00990096  RH  100%=      5-min Rain = 0
KST1 251130Z 23007KT 10/10 A2991 RMK A01 T00990097  RH  100%=      5-min Rain = 0
KST1 251135Z 23007KT 10/10 A2991 RMK A01 T00990097  RH  100%=      5-min Rain = 0
KST1 251140Z 23007KT 10/10 A2991 RMK A01 T00990097  RH  100%=      5-min Rain = 0
KST1 251145Z 23007KT 10/10 A2991 RMK A01 T00990096  RH  100%=      5-min Rain = 0
KST1 251150Z 23006KT 10/10 A2991 RMK A01 T00980096  RH  100%=      5-min Rain = 0
KST1 251155Z 23006KT 10/10 A2991 RMK A01 T00970095  RH  100%=      5-min Rain = 0
KST1 251200Z 24006KT 10/09 A2991 RMK A01 T00960094  RH  100%=      5-min Rain = 0
KST1 251205Z 24006KT 10/09 A2992 RMK A01 T00950093  RH  100%=      5-min Rain = 0
KST1 251210Z 23007KT 10/09 A2992 RMK A01 T00950092  RH  100%=      5-min Rain = 0
KST1 251215Z 23006KT 10/09 A2991 RMK A01 T00950092  RH  100%=      5-min Rain = 0.01
KST1 251220Z 22007KT 10/09 A2991 RMK A01 T00950093  RH  100%=      5-min Rain = 0
KST1 251225Z 22007KT 10/09 A2991 RMK A01 T00960094  RH  100%=      5-min Rain = 0
KST1 251230Z 22007KT 10/10 A2992 RMK A01 T00970095  RH  100%=      5-min Rain = 0
KST1 251235Z 23007KT 10/10 A2992 RMK A01 T00990096  RH  100%=      5-min Rain = 0
KST1 251240Z 23007KT 10/10 A2992 RMK A01 T01000097  RH  100%=      5-min Rain = 0
KST1 251245Z 23008KT 10/10 A2992 RMK A01 T01010099  RH  100%=      5-min Rain = 0
KST1 251250Z 24008KT 10/10 A2993 RMK A01 T01030100  RH  100%=      5-min Rain = 0
KST1 251255Z 25008KT 11/10 A2993 RMK A01 T01050102  RH  100%=      5-min Rain = 0
KST1 251300Z 25008KT 11/11 A2993 RMK A01 T01080105  RH  100%=      5-min Rain = 0
KST1 251305Z 25008KT 11/11 A2993 RMK A01 T01110108  RH  100%=      5-min Rain = 0
KST1 251310Z 25008KT 11/11 A2994 RMK A01 T01140111  RH  100%=      5-min Rain = 0
KST1 251315Z 25008KT 12/11 A2994 RMK A01 T01180113  RH  099%=      5-min Rain = 0
KST1 251320Z 25008KT 12/12 A2994 RMK A01 T01210115  RH  097%=      5-min Rain = 0
KST1 251325Z 26009KT 13/12 A2994 RMK A01 T01260117  RH  096%=      5-min Rain = 0
KST1 251330Z 26009KT 13/12 A2994 RMK A01 T01310118  RH  094%=      5-min Rain = 0
KST1 251335Z 26009KT 13/12 A2995 RMK A01 T01340118  RH  092%=      5-min Rain = 0
KST1 251340Z 26009KT 14/12 A2995 RMK A01 T01370120  RH  091%=      5-min Rain = 0
KST1 251345Z 26010KT 14/12 A2995 RMK A01 T01390120  RH  089%=      5-min Rain = 0
KST1 251350Z 26009KT 14/12 A2995 RMK A01 T01430121  RH  089%=      5-min Rain = 0
KST1 251355Z 25008KT 15/13 A2995 RMK A01 T01460126  RH  089%=      5-min Rain = 0
KST1 251400Z 25010KT 15/12 A2995 RMK A01 T01480122  RH  086%=      5-min Rain = 0
KST1 251405Z 25009KT 15/13 A2995 RMK A01 T01520125  RH  085%=      5-min Rain = 0
KST1 251410Z 25009KT 15/12 A2995 RMK A01 T01540123  RH  084%=      5-min Rain = 0
KST1 251415Z 25008KT 16/13 A2995 RMK A01 T01560126  RH  084%=      5-min Rain = 0
KST1 251420Z 25007KT 16/13 A2995 RMK A01 T01600129  RH  083%=      5-min Rain = 0
KST1 251425Z 25007KT 16/13 A2995 RMK A01 T01630130  RH  083%=      5-min Rain = 0
KST1 251430Z 25008KT 17/13 A2995 RMK A01 T01650130  RH  081%=      5-min Rain = 0
KST1 251435Z 25008KT 17/13 A2995 RMK A01 T01690130  RH  079%=      5-min Rain = 0
KST1 251445Z 24007KT 18/13 A2995 RMK A01 T01770133  RH  077%=      5-min Rain = 0
KST1 251450Z 24007KT 18/14 A2995 RMK A01 T01790136  RH  077%=      5-min Rain = 0
KST1 251455Z 24008KT 18/13 A2996 RMK A01 T01820133  RH  075%=      5-min Rain = 0
KST1 251500Z 24009KT 18/13 A2996 RMK A01 T01840132  RH  073%=      5-min Rain = 0
KST1 251505Z 24010KT 19/13 A2996 RMK A01 T01870132  RH  072%=      5-min Rain = 0
KST1 251510Z 25011KT 19/13 A2996 RMK A01 T01900132  RH  070%=      5-min Rain = 0
KST1 251515Z 25011KT 19/13 A2996 RMK A01 T01920128  RH  068%=      5-min Rain = 0
KST1 251520Z 26009KT 20/13 A2996 RMK A01 T01950134  RH  069%=      5-min Rain = 0
KST1 251525Z 25009KT 20/14 A2996 RMK A01 T01990138  RH  070%=      5-min Rain = 0
KST1 251530Z 25009KT 20/14 A2996 RMK A01 T02010139  RH  069%=      5-min Rain = 0
KST1 251540Z 24009KT 21/14 A2996 RMK A01 T02050140  RH  068%=      5-min Rain = 0
KST1 251545Z 23007KT 21/14 A2996 RMK A01 T02060140  RH  067%=      5-min Rain = 0
KST1 251550Z 24007KT 21/14 A2997 RMK A01 T02090138  RH  065%=      5-min Rain = 0
KST1 251555Z 24007KT 21/14 A2997 RMK A01 T02120136  RH  063%=      5-min Rain = 0
KST1 251600Z 24007KT 21/14 A2997 RMK A01 T02130138  RH  063%=      5-min Rain = 0
KST1 251605Z 24008KT 22/14 A2997 RMK A01 T02150140  RH  063%=      5-min Rain = 0
KST1 251610Z 24008KT 22/14 A2997 RMK A01 T02160137  RH  062%=      5-min Rain = 0
KST1 251615Z 23008KT 22/14 A2997 RMK A01 T02180136  RH  061%=      5-min Rain = 0
KST1 251620Z 25009KT 22/13 A2997 RMK A01 T02200134  RH  059%=      5-min Rain = 0
KST1 251625Z 24008KT 22/14 A2997 RMK A01 T02230141  RH  061%=      5-min Rain = 0
KST1 251630Z 24009KT 22/14 A2997 RMK A01 T02230142  RH  061%=      5-min Rain = 0
KST1 251635Z 23009KT 23/14 A2997 RMK A01 T02250141  RH  060%=      5-min Rain = 0
KST1 251640Z 23009KT 23/15 A2997 RMK A01 T02260146  RH  062%=      5-min Rain = 0
KST1 251645Z 24009KT 23/14 A2997 RMK A01 T02270142  RH  060%=      5-min Rain = 0
KST1 251650Z 24009KT 23/14 A2998 RMK A01 T02290144  RH  060%=      5-min Rain = 0
KST1 251655Z 23010KT 23/15 A2998 RMK A01 T02310148  RH  061%=      5-min Rain = 0
KST1 251700Z 23010KT 23/15 A2998 RMK A01 T02320146  RH  060%=      5-min Rain = 0
KST1 251705Z 24009KT 23/14 A2998 RMK A01 T02320141  RH  058%=      5-min Rain = 0
KST1 251710Z 25008KT 24/14 A2998 RMK A01 T02360143  RH  057%=      5-min Rain = 0
KST1 251715Z 24008KT 24/14 A2998 RMK A01 T02360144  RH  058%=      5-min Rain = 0
KST1 251720Z 25007KT 24/14 A2998 RMK A01 T02380141  RH  056%=      5-min Rain = 0
KST1 251725Z 25008KT 24/13 A2998 RMK A01 T02390133  RH  053%=      5-min Rain = 0
KST1 251730Z 25008KT 24/13 A2998 RMK A01 T02400133  RH  052%=      5-min Rain = 0
KST1 251735Z 24007KT 24/14 A2998 RMK A01 T02410137  RH  053%=      5-min Rain = 0
KST1 251740Z 24009KT 24/13 A2998 RMK A01 T02430134  RH  051%=      5-min Rain = 0
KST1 251745Z 23010KT 24/14 A2998 RMK A01 T02440135  RH  052%=      5-min Rain = 0
KST1 251750Z 24010KT 24/13 A2998 RMK A01 T02430129  RH  050%=      5-min Rain = 0
KST1 251755Z 23009KT 25/14 A2998 RMK A01 T02460136  RH  051%=      5-min Rain = 0
KST1 251800Z 23011KT 25/13 A2998 RMK A01 T02450130  RH  050%=      5-min Rain = 0
KST1 251805Z 22009KT 25/13 A2998 RMK A01 T02470127  RH  048%=      5-min Rain = 0
KST1 251810Z 23009KT 25/13 A2998 RMK A01 T02480126  RH  048%=      5-min Rain = 0
KST1 251815Z 23010KT 25/11 A2998 RMK A01 T02500109  RH  042%=      5-min Rain = 0
KST1 251820Z 24009KT 25/11 A2998 RMK A01 T02500111  RH  042%=      5-min Rain = 0
KST1 251825Z 24009KT 25/10 A2998 RMK A01 T02510103  RH  040%=      5-min Rain = 0
KST1 251830Z 25008KT 25/09 A2998 RMK A01 T02530087  RH  036%=      5-min Rain = 0
KST1 251835Z 26008KT 26/11 A2999 RMK A01 T02550109  RH  041%=      5-min Rain = 0
KST1 251840Z 24008KT 26/11 A2999 RMK A01 T02550111  RH  041%=      5-min Rain = 0
KST1 251845Z 25010G15KT 26/11 A2999 RMK A01 T02580109  RH  040%=      5-min Rain = 0
KST1 251850Z 25008KT 26/12 A2999 RMK A01 T02570116  RH  042%=      5-min Rain = 0
KST1 251855Z 26008KT 26/11 A2999 RMK A01 T02570110  RH  041%=      5-min Rain = 0
KST1 251900Z 25009KT 26/11 A2999 RMK A01 T02560113  RH  041%=      5-min Rain = 0
KST1 251905Z 26009KT 26/11 A2999 RMK A01 T02580111  RH  041%=      5-min Rain = 0
KST1 251910Z 25009KT 26/10 A2999 RMK A01 T02580101  RH  038%=      5-min Rain = 0
KST1 251915Z 25008KT 26/10 A2999 RMK A01 T02580100  RH  038%=      5-min Rain = 0
KST1 251920Z 25007KT 26/10 A2999 RMK A01 T02600098  RH  037%=      5-min Rain = 0
KST1 251925Z 25006G11KT 26/10 A2999 RMK A01 T02600102  RH  038%=      5-min Rain = 0
KST1 251930Z 24008KT 26/10 A2999 RMK A01 T02600102  RH  038%=      5-min Rain = 0
KST1 251935Z 24008KT 26/10 A2999 RMK A01 T02600103  RH  038%=      5-min Rain = 0
KST1 251940Z 24008KT 26/11 A2999 RMK A01 T02610105  RH  038%=      5-min Rain = 0
KST1 251945Z 24009KT 26/10 A2999 RMK A01 T02610095  RH  036%=      5-min Rain = 0
KST1 251950Z 25008KT 26/10 A2999 RMK A01 T02610104  RH  038%=      5-min Rain = 0
KST1 251955Z 24007KT 26/10 A2999 RMK A01 T02630097  RH  036%=      5-min Rain = 0
KST1 252000Z 26007KT 27/10 A2999 RMK A01 T02650102  RH  037%=      5-min Rain = 0
KST1 252005Z 27007KT 27/10 A2999 RMK A01 T02650098  RH  036%=      5-min Rain = 0
KST1 252010Z 24008KT 27/11 A2999 RMK A01 T02660105  RH  037%=      5-min Rain = 0
KST1 252015Z 24007KT 27/10 A2999 RMK A01 T02660103  RH  037%=      5-min Rain = 0
KST1 252020Z 24006KT 27/11 A2999 RMK A01 T02680107  RH  037%=      5-min Rain = 0
KST1 252025Z 25006KT 27/10 A2999 RMK A01 T02670102  RH  036%=      5-min Rain = 0
KST1 252030Z 25007KT 27/10 A2999 RMK A01 T02680099  RH  035%=      5-min Rain = 0
KST1 252035Z 27005G10KT 27/09 A2999 RMK A01 T02680086  RH  032%=      5-min Rain = 0
KST1 252040Z 27006KT 27/11 A2999 RMK A01 T02720108  RH  037%=      5-min Rain = 0
KST1 252045Z 26006KT 27/09 A2998 RMK A01 T02690093  RH  034%=      5-min Rain = 0
KST1 252050Z 27005KT 27/10 A2998 RMK A01 T02710102  RH  035%=      5-min Rain = 0
KST1 252055Z 27007KT 27/12 A2998 RMK A01 T02730115  RH  038%=      5-min Rain = 0
KST1 252100Z 28006KT 27/10 A2998 RMK A01 T02730101  RH  035%=      5-min Rain = 0
KST1 252105Z 29006G11KT 27/10 A2998 RMK A01 T02720099  RH  034%=      5-min Rain = 0
KST1 252110Z 28005KT 27/10 A2998 RMK A01 T02730100  RH  034%=      5-min Rain = 0
KST1 252115Z 29005KT 28/11 A2998 RMK A01 T02760111  RH  036%=      5-min Rain = 0
KST1 252120Z 28005KT 27/10 A2998 RMK A01 T02740099  RH  034%=      5-min Rain = 0
KST1 252125Z 28005KT 28/10 A2998 RMK A01 T02750099  RH  034%=      5-min Rain = 0
KST1 252130Z 32005KT 28/11 A2998 RMK A01 T02760107  RH  036%=      5-min Rain = 0
KST1 252135Z 28003G8KT 28/11 A2998 RMK A01 T02750106  RH  035%=      5-min Rain = 0
KST1 252140Z 23002KT 28/09 A2998 RMK A01 T02760090  RH  031%=      5-min Rain = 0
KST1 252145Z 18001KT 28/10 A2998 RMK A01 T02830100  RH  033%=      5-min Rain = 0
KST1 252150Z 19001KT 28/10 A2998 RMK A01 T02840103  RH  033%=      5-min Rain = 0
KST1 252155Z 10002KT 29/12 A2998 RMK A01 T02860120  RH  036%=      5-min Rain = 0
KST1 252200Z 12002KT 28/10 A2998 RMK A01 T02790102  RH  034%=      5-min Rain = 0
KST1 252205Z 08002KT 28/11 A2998 RMK A01 T02840114  RH  036%=      5-min Rain = 0
KST1 252210Z 09002KT 28/11 A2998 RMK A01 T02760111  RH  037%=      5-min Rain = 0
KST1 252215Z 08001KT 28/11 A2998 RMK A01 T02770113  RH  037%=      5-min Rain = 0
KST1 252220Z 16001KT 28/09 A2998 RMK A01 T02830093  RH  031%=      5-min Rain = 0
KST1 252225Z 14001KT 28/09 A2998 RMK A01 T02830092  RH  031%=      5-min Rain = 0
KST1 252230Z 03002KT 28/11 A2999 RMK A01 T02810112  RH  036%=      5-min Rain = 0
KST1 252235Z 00003KT 28/12 A2999 RMK A01 T02780124  RH  039%=      5-min Rain = 0
KST1 252240Z 32002KT 28/10 A2999 RMK A01 T02800102  RH  033%=      5-min Rain = 0
KST1 252245Z 29001KT 29/10 A2999 RMK A01 T02850098  RH  032%=      5-min Rain = 0
KST1 252250Z 02001KT 29/10 A2999 RMK A01 T02860101  RH  032%=      5-min Rain = 0
KST1 252255Z 07003KT 28/12 A2999 RMK A01 T02780116  RH  037%=      5-min Rain = 0
KST1 252300Z 09002KT 28/10 A2999 RMK A01 T02750104  RH  035%=      5-min Rain = 0
KST1 252305Z 09003KT 28/12 A2999 RMK A01 T02770117  RH  038%=      5-min Rain = 0
KST1 252310Z 04005KT 27/13 A2999 RMK A01 T02710126  RH  042%=      5-min Rain = 0
KST1 252315Z 05001KT 27/10 A2999 RMK A01 T02730101  RH  035%=      5-min Rain = 0
KST1 252320Z 09001KT 28/10 A2999 RMK A01 T02800104  RH  034%=      5-min Rain = 0
KST1 252325Z 02003KT 28/12 A30 RMK A01 T02770122  RH  039%=      5-min Rain = 0
KST1 252330Z 01003KT 28/12 A30 RMK A01 T02750123  RH  040%=      5-min Rain = 0
KST1 252335Z 06005KT 27/12 A30 RMK A01 T02700121  RH  040%=      5-min Rain = 0
KST1 252340Z 07005KT 27/12 A30 RMK A01 T02680124  RH  042%=      5-min Rain = 0
KST1 252345Z 07005KT 27/12 A30 RMK A01 T02650124  RH  042%=      5-min Rain = 0
KST1 252350Z 06004KT 27/13 A30 RMK A01 T02650131  RH  044%=      5-min Rain = 0
KST1 252355Z 06004KT 27/13 A30 RMK A01 T02650126  RH  043%=      5-min Rain = 0
KST1 260000Z 11003KT 27/12 A30 RMK A01 T02680121  RH  041%=      5-min Rain = 0
KST1 260005Z 08003KT 27/13 A3001 RMK A01 T02690125  RH  042%=      5-min Rain = 0
KST1 260010Z 04004KT 27/13 A3001 RMK A01 T02650133  RH  045%=      5-min Rain = 0
KST1 260015Z 03005KT 26/13 A3001 RMK A01 T02610129  RH  045%=      5-min Rain = 0
KST1 260020Z 04005KT 26/13 A3001 RMK A01 T02560134  RH  048%=      5-min Rain = 0
KST1 260025Z 06004KT 26/14 A3001 RMK A01 T02560139  RH  049%=      5-min Rain = 0
KST1 260030Z 06002KT 26/15 A3001 RMK A01 T02560150  RH  053%=      5-min Rain = 0
KST1 260035Z 07002KT 26/15 A3001 RMK A01 T02590151  RH  052%=      5-min Rain = 0
KST1 260040Z 08003KT 26/15 A3001 RMK A01 T02580152  RH  053%=      5-min Rain = 0
KST1 260045Z 08003KT 26/16 A3002 RMK A01 T02570157  RH  055%=      5-min Rain = 0
KST1 260050Z 09004KT 25/16 A3002 RMK A01 T02520164  RH  060%=      5-min Rain = 0
KST1 260055Z 09005KT 25/18 A3002 RMK A01 T02460177  RH  067%=      5-min Rain = 0
KST1 260100Z 09004KT 24/18 A3002 RMK A01 T02410180  RH  070%=      5-min Rain = 0
KST1 260105Z 11004KT 24/18 A3002 RMK A01 T02400178  RH  070%=      5-min Rain = 0
KST1 260110Z 10005KT 24/18 A3002 RMK A01 T02380179  RH  071%=      5-min Rain = 0
KST1 260115Z 10004KT 23/18 A3002 RMK A01 T02340181  RH  074%=      5-min Rain = 0
KST1 260120Z 09004KT 23/19 A3002 RMK A01 T02300185  RH  078%=      5-min Rain = 0
KST1 260125Z 09004KT 23/18 A3003 RMK A01 T02310178  RH  074%=      5-min Rain = 0
KST1 260130Z 09004KT 23/17 A3003 RMK A01 T02320166  RH  068%=      5-min Rain = 0
KST1 260135Z 09004KT 23/17 A3003 RMK A01 T02310170  RH  070%=      5-min Rain = 0
KST1 260140Z 08004KT 23/18 A3003 RMK A01 T02260175  RH  075%=      5-min Rain = 0
KST1 260145Z 08005KT 22/17 A3003 RMK A01 T02220165  RH  072%=      5-min Rain = 0
KST1 260150Z 07007KT 22/16 A3003 RMK A01 T02180157  RH  070%=      5-min Rain = 0
KST1 260155Z 07007KT 21/16 A3004 RMK A01 T02140155  RH  071%=      5-min Rain = 0
KST1 260200Z 07007KT 21/15 A3004 RMK A01 T02120152  RH  070%=      5-min Rain = 0
KST1 260205Z 06007KT 21/15 A3004 RMK A01 T02110152  RH  070%=      5-min Rain = 0
KST1 260210Z 06007KT 21/15 A3005 RMK A01 T02070154  RH  073%=      5-min Rain = 0
KST1 260215Z 06007KT 20/15 A3005 RMK A01 T02030154  RH  075%=      5-min Rain = 0
KST1 260220Z 06006KT 20/16 A3005 RMK A01 T02000158  RH  078%=      5-min Rain = 0
KST1 260225Z 06006KT 20/16 A3006 RMK A01 T01970160  RH  081%=      5-min Rain = 0
KST1 260230Z 06007KT 20/16 A3006 RMK A01 T01950161  RH  083%=      5-min Rain = 0
KST1 260235Z 07007KT 20/16 A3006 RMK A01 T01960158  RH  080%=      5-min Rain = 0
KST1 260240Z 08007KT 20/15 A3007 RMK A01 T02000152  RH  075%=      5-min Rain = 0
KST1 260245Z 08008KT 20/15 A3007 RMK A01 T02040147  RH  072%=      5-min Rain = 0
KST1 260250Z 08009KT 21/14 A3007 RMK A01 T02080140  RH  066%=      5-min Rain = 0
KST1 260255Z 07008KT 20/15 A3007 RMK A01 T02030145  RH  071%=      5-min Rain = 0
KST1 260300Z 07008KT 20/15 A3008 RMK A01 T01960149  RH  076%=      5-min Rain = 0
KST1 260305Z 06008KT 19/15 A3008 RMK A01 T01920150  RH  078%=      5-min Rain = 0
KST1 260310Z 06008KT 19/15 A3008 RMK A01 T01890152  RH  081%=      5-min Rain = 0
KST1 260315Z 05008KT 19/15 A3009 RMK A01 T01870153  RH  082%=      5-min Rain = 0
KST1 260320Z 06007KT 19/16 A3009 RMK A01 T01850155  RH  084%=      5-min Rain = 0
KST1 260325Z 06007KT 18/16 A301 RMK A01 T01830155  RH  086%=      5-min Rain = 0
KST1 260330Z 06007KT 18/15 A301 RMK A01 T01830154  RH  085%=      5-min Rain = 0
KST1 260335Z 06007KT 18/15 A301 RMK A01 T01830154  RH  085%=      5-min Rain = 0
KST1 260340Z 07007KT 18/15 A3011 RMK A01 T01820154  RH  086%=      5-min Rain = 0
KST1 260345Z 07008KT 18/15 A3011 RMK A01 T01840152  RH  083%=      5-min Rain = 0
KST1 260350Z 07008KT 19/15 A3011 RMK A01 T01860149  RH  080%=      5-min Rain = 0
KST1 260355Z 07008KT 19/15 A3011 RMK A01 T01870147  RH  079%=      5-min Rain = 0
KST1 260400Z 07008KT 19/15 A3011 RMK A01 T01860148  RH  080%=      5-min Rain = 0
KST1 260405Z 07009KT 19/15 A3011 RMK A01 T01870146  RH  079%=      5-min Rain = 0
KST1 260410Z 07009KT 19/14 A3012 RMK A01 T01890144  RH  077%=      5-min Rain = 0
KST1 260415Z 08009KT 19/14 A3012 RMK A01 T01910141  RH  074%=      5-min Rain = 0
KST1 260420Z 08009KT 19/14 A3012 RMK A01 T01900140  RH  074%=      5-min Rain = 0
KST1 260425Z 08008KT 19/14 A3012 RMK A01 T01880140  RH  075%=      5-min Rain = 0
KST1 260430Z 08008KT 19/14 A3012 RMK A01 T01860140  RH  076%=      5-min Rain = 0
KST1 260435Z 08008KT 19/14 A3012 RMK A01 T01860139  RH  076%=      5-min Rain = 0
KST1 260440Z 08007KT 18/14 A3012 RMK A01 T01840139  RH  077%=      5-min Rain = 0
KST1 260445Z 08007KT 18/14 A3012 RMK A01 T01820139  RH  078%=      5-min Rain = 0
KST1 260450Z 08007KT 18/14 A3012 RMK A01 T01800140  RH  079%=      5-min Rain = 0
KST1 260455Z 07008KT 18/14 A3012 RMK A01 T01770141  RH  081%=      5-min Rain = 0

Page generated in 0.0418 seconds.